createdAt,value
2023-03-05T00:03:25.164Z,100.00
2023-03-05T00:07:26.605Z,100.00
2023-03-05T00:11:30.118Z,100.00
2023-03-05T00:15:31.695Z,100.00
2023-03-05T00:19:33.146Z,100.00
2023-03-05T00:23:34.589Z,100.00
2023-03-05T00:27:35.997Z,100.00
2023-03-05T00:31:37.990Z,100.00
2023-03-05T00:35:41.383Z,100.00
2023-03-05T00:39:42.882Z,100.00
2023-03-05T00:43:44.329Z,100.00
2023-03-05T00:47:45.753Z,100.00
2023-03-05T00:51:47.249Z,100.00
2023-03-05T00:55:48.861Z,100.00
2023-03-05T00:59:50.328Z,100.00
2023-03-05T01:03:52.040Z,100.00
2023-03-05T01:07:54.470Z,100.00
2023-03-05T01:11:56.302Z,100.00
2023-03-05T01:15:57.785Z,100.00
2023-03-05T01:19:59.283Z,100.00
2023-03-05T01:24:00.737Z,100.00
2023-03-05T01:28:02.173Z,100.00
2023-03-05T01:32:03.728Z,100.00
2023-03-05T01:36:14.810Z,100.00
2023-03-05T01:40:19.770Z,100.00
2023-03-05T01:44:27.471Z,100.00
2023-03-05T01:48:28.999Z,100.00
2023-03-05T01:52:33.972Z,100.00
2023-03-05T01:56:36.670Z,100.00
2023-03-05T02:00:43.910Z,100.00
2023-03-05T02:04:50.850Z,100.00
2023-03-05T02:08:52.414Z,100.00
2023-03-05T02:12:58.514Z,100.00
2023-03-05T02:17:00.300Z,100.00
2023-03-05T02:21:06.575Z,100.00
2023-03-05T02:25:17.155Z,100.00
2023-03-05T02:29:19.937Z,100.00
2023-03-05T02:33:22.593Z,99.27
2023-03-05T02:37:24.026Z,99.40
2023-03-05T02:41:26.732Z,97.26
2023-03-05T02:45:28.414Z,97.39
2023-03-05T02:49:30.013Z,97.67
2023-03-05T02:53:31.436Z,97.05
2023-03-05T02:57:32.864Z,98.23
2023-03-05T03:01:34.536Z,98.99
2023-03-05T03:05:36.866Z,99.60
2023-03-05T03:09:38.952Z,100.00
2023-03-05T03:13:41.171Z,100.00
2023-03-05T03:17:42.619Z,100.00
2023-03-05T03:21:44.055Z,100.00
2023-03-05T03:25:45.489Z,100.00
2023-03-05T03:29:46.919Z,100.00
2023-03-05T03:33:48.388Z,100.00
2023-03-05T03:37:49.850Z,100.00
2023-03-05T03:41:53.213Z,100.00
2023-03-05T03:45:54.710Z,100.00
2023-03-05T03:49:56.687Z,100.00
2023-03-05T03:53:58.598Z,100.00
2023-03-05T03:58:00.249Z,100.00
2023-03-05T04:02:01.754Z,100.00
2023-03-05T04:06:04.432Z,100.00
2023-03-05T04:10:06.329Z,100.00
2023-03-05T04:14:07.774Z,100.00
2023-03-05T04:18:10.424Z,100.00
2023-03-05T04:22:14.360Z,100.00
2023-03-05T04:26:15.760Z,100.00
2023-03-05T04:30:17.640Z,100.00
2023-03-05T04:34:19.116Z,100.00
2023-03-05T04:38:20.604Z,100.00
2023-03-05T04:42:22.126Z,100.00
2023-03-05T04:46:23.559Z,100.00
2023-03-05T04:50:25.903Z,100.00
2023-03-05T04:54:28.109Z,100.00
2023-03-05T04:58:29.550Z,100.00
2023-03-05T05:02:31.025Z,100.00
2023-03-05T05:06:32.496Z,100.00
2023-03-05T05:10:33.930Z,100.00
2023-03-05T05:14:35.397Z,100.00
2023-03-05T05:18:36.858Z,100.00
2023-03-05T05:22:38.512Z,100.00
2023-03-05T05:26:41.097Z,100.00
2023-03-05T05:30:42.504Z,100.00
2023-03-05T05:34:43.943Z,100.00
2023-03-05T05:38:45.867Z,100.00
2023-03-05T05:42:47.305Z,100.00
2023-03-05T05:46:48.868Z,100.00
2023-03-05T05:50:50.292Z,100.00
2023-03-05T05:54:51.811Z,100.00
2023-03-05T05:58:53.925Z,100.00
2023-03-05T06:02:55.372Z,100.00
2023-03-05T06:06:58.267Z,100.00
2023-03-05T06:10:59.654Z,100.00
2023-03-05T06:15:01.136Z,100.00
2023-03-05T06:19:04.583Z,100.00
2023-03-05T06:23:07.142Z,100.00
2023-03-05T06:27:08.595Z,100.00
2023-03-05T06:31:13.521Z,100.00
2023-03-05T06:35:15.048Z,100.00
2023-03-05T06:39:16.483Z,100.00
2023-03-05T06:43:18.196Z,100.00
2023-03-05T06:47:19.660Z,100.00
2023-03-05T06:51:24.786Z,100.00
2023-03-05T06:55:26.264Z,100.00
2023-03-05T06:59:28.073Z,100.00
2023-03-05T07:03:29.523Z,100.00
2023-03-05T07:07:31.104Z,100.00
2023-03-05T07:11:34.100Z,100.00
2023-03-05T07:15:38.883Z,100.00
2023-03-05T07:19:40.741Z,100.00
2023-03-05T07:23:42.189Z,100.00
2023-03-05T07:27:43.604Z,100.00
2023-03-05T07:31:45.014Z,100.00
2023-03-05T07:35:46.465Z,100.00
2023-03-05T07:39:48.025Z,100.00
2023-03-05T07:43:52.849Z,100.00
2023-03-05T07:47:56.055Z,100.00
2023-03-05T07:51:57.488Z,100.00
2023-03-05T07:55:58.951Z,100.00
2023-03-05T08:00:00.346Z,100.00
2023-03-05T08:04:03.712Z,100.00
2023-03-05T08:08:05.525Z,100.00
2023-03-05T08:12:07.454Z,100.00
2023-03-05T08:16:12.440Z,100.00
2023-03-05T08:20:14.015Z,100.00
2023-03-05T08:24:15.560Z,96.30
2023-03-05T08:28:19.602Z,97.19
2023-03-05T08:32:21.339Z,95.77
2023-03-05T08:36:22.797Z,90.55
2023-03-05T08:40:24.345Z,91.33
2023-03-05T08:44:25.835Z,86.64
2023-03-05T08:48:27.792Z,84.54
2023-03-05T08:52:29.354Z,84.50
2023-03-05T08:56:31.416Z,84.66
2023-03-05T09:00:33.015Z,83.18
2023-03-05T09:04:34.452Z,82.86
2023-03-05T09:08:36.301Z,81.52
2023-03-05T09:12:37.849Z,78.34
2023-03-05T09:16:40.939Z,75.23
2023-03-05T09:20:42.479Z,70.93
2023-03-05T09:24:44.103Z,71.74
2023-03-05T09:28:45.867Z,73.23
2023-03-05T09:32:47.429Z,73.06
2023-03-05T09:36:48.917Z,72.34
2023-03-05T09:45:41.978Z,71.81
2023-03-05T09:49:54.316Z,70.31
2023-03-05T09:54:10.828Z,69.63
2023-03-05T09:58:18.821Z,70.14
2023-03-05T10:02:33.958Z,67.13
2023-03-05T10:06:41.766Z,63.98
2023-03-05T10:10:54.104Z,63.43
2023-03-05T10:14:56.090Z,65.95
2023-03-05T10:19:29.999Z,64.47
2023-03-05T10:23:34.156Z,65.33
2023-03-05T10:27:54.182Z,65.00
2023-03-05T10:32:36.337Z,64.91
2023-03-05T10:36:47.278Z,62.75
2023-03-05T10:40:52.774Z,61.43
2023-03-05T10:44:59.720Z,62.29
2023-03-05T10:49:26.760Z,60.87
2023-03-05T10:53:35.066Z,62.34
2023-03-05T10:57:36.505Z,64.14
2023-03-05T11:01:38.228Z,64.89
2023-03-05T11:05:58.795Z,64.82
2023-03-05T11:10:00.227Z,65.12
2023-03-05T11:14:03.868Z,65.10
2023-03-05T11:18:07.482Z,65.00
2023-03-05T11:22:16.360Z,65.96
2023-03-05T11:26:23.187Z,67.86
2023-03-05T11:30:34.558Z,72.57
2023-03-05T11:34:36.158Z,77.01
2023-03-05T11:39:07.532Z,81.81
2023-03-05T11:43:16.079Z,86.02
2023-03-05T11:47:44.747Z,89.77
2023-03-05T11:51:57.793Z,90.39
2023-03-05T11:56:05.317Z,88.73
2023-03-05T12:00:12.254Z,90.14
2023-03-05T12:04:14.640Z,92.35
2023-03-05T12:08:22.950Z,93.27
2023-03-05T12:12:51.466Z,95.97
2023-03-05T12:17:10.205Z,100.00
2023-03-05T12:21:29.944Z,100.00
2023-03-05T12:25:34.957Z,89.66
2023-03-05T12:29:51.737Z,82.31
2023-03-05T12:33:53.240Z,81.14
2023-03-05T12:37:54.711Z,88.17
2023-03-05T12:41:56.555Z,89.70
2023-03-05T12:46:29.377Z,90.58
2023-03-05T12:50:32.802Z,87.54
2023-03-05T12:54:42.041Z,87.32
2023-03-05T12:58:51.265Z,84.97
2023-03-05T13:02:58.683Z,89.04
2023-03-05T13:07:06.038Z,90.25
2023-03-05T13:11:16.822Z,100.00
2023-03-05T13:15:18.664Z,100.00
2023-03-05T13:19:21.481Z,100.00
2023-03-05T13:23:28.527Z,100.00
2023-03-05T13:27:32.499Z,100.00
2023-03-05T13:31:36.624Z,100.00
2023-03-05T13:35:46.348Z,99.31
2023-03-05T13:39:52.130Z,100.00
2023-03-05T13:43:55.168Z,100.00
2023-03-05T13:47:59.233Z,99.76
2023-03-05T13:52:00.838Z,96.72
2023-03-05T13:56:05.618Z,96.49
2023-03-05T14:00:27.019Z,92.94
2023-03-05T14:04:32.343Z,88.96
2023-03-05T14:08:33.914Z,86.44
2023-03-05T14:12:40.882Z,88.97
2023-03-05T14:16:42.512Z,86.32
2023-03-05T14:21:08.871Z,87.20
2023-03-05T14:25:39.415Z,86.16
2023-03-05T14:29:46.532Z,87.42
2023-03-05T14:33:48.900Z,89.62
2023-03-05T14:37:53.193Z,88.71
2023-03-05T14:41:54.701Z,94.52
2023-03-05T14:45:56.342Z,100.00
2023-03-05T14:49:57.905Z,100.00
2023-03-05T14:53:59.433Z,100.00
2023-03-05T14:58:04.684Z,100.00
2023-03-05T15:02:30.446Z,100.00
2023-03-05T15:06:39.502Z,100.00
2023-03-05T15:10:41.407Z,100.00
2023-03-05T15:14:43.536Z,100.00
2023-03-05T15:18:46.292Z,100.00
2023-03-05T15:22:47.790Z,100.00
2023-03-05T15:26:50.271Z,100.00
2023-03-05T15:30:51.839Z,100.00
2023-03-05T15:34:55.954Z,100.00
2023-03-05T15:38:57.480Z,100.00
2023-03-05T15:43:00.421Z,100.00
2023-03-05T15:47:02.059Z,100.00
2023-03-05T15:51:07.093Z,100.00
2023-03-05T15:55:09.524Z,100.00
2023-03-05T15:59:13.336Z,100.00
2023-03-05T16:03:17.630Z,100.00
2023-03-05T16:07:19.822Z,100.00
2023-03-05T16:11:25.721Z,100.00
2023-03-05T16:15:27.408Z,100.00
2023-03-05T16:19:30.463Z,100.00
2023-03-05T16:23:32.048Z,100.00
2023-03-05T16:27:33.997Z,100.00
2023-03-05T16:31:39.155Z,100.00
2023-03-05T16:35:40.786Z,100.00
2023-03-05T16:39:42.722Z,100.00
2023-03-05T16:43:45.052Z,100.00
2023-03-05T16:47:46.531Z,100.00
2023-03-05T16:51:48.604Z,100.00
2023-03-05T16:55:50.849Z,100.00
2023-03-05T16:59:57.406Z,100.00
2023-03-05T17:03:59.861Z,100.00
2023-03-05T17:08:04.082Z,100.00
2023-03-05T17:12:05.737Z,100.00
2023-03-05T17:16:09.062Z,100.00
2023-03-05T17:20:11.092Z,100.00
2023-03-05T17:24:12.637Z,100.00
2023-03-05T17:28:14.813Z,100.00
2023-03-05T17:32:16.533Z,100.00
2023-03-05T17:36:22.131Z,100.00
2023-03-05T17:40:24.979Z,100.00
2023-03-05T17:44:26.523Z,100.00
2023-03-05T17:48:28.742Z,100.00
2023-03-05T17:52:30.406Z,100.00
2023-03-05T17:56:32.872Z,100.00
2023-03-05T18:00:35.522Z,100.00
2023-03-05T18:04:37.354Z,100.00
2023-03-05T18:08:39.321Z,100.00
2023-03-05T18:12:41.143Z,100.00
2023-03-05T18:16:42.696Z,100.00
2023-03-05T18:20:44.641Z,100.00
2023-03-05T18:24:46.073Z,100.00
2023-03-05T18:28:50.352Z,100.00
2023-03-05T18:32:51.836Z,100.00
2023-03-05T18:36:54.277Z,100.00
2023-03-05T18:40:57.420Z,100.00
2023-03-05T18:45:00.751Z,100.00
2023-03-05T18:49:02.306Z,100.00
2023-03-05T18:53:03.834Z,100.00
2023-03-05T18:57:05.407Z,100.00
2023-03-05T19:01:07.151Z,100.00
2023-03-05T19:05:10.333Z,100.00
2023-03-05T19:09:20.967Z,100.00
2023-03-05T19:13:49.002Z,100.00
2023-03-05T19:17:50.751Z,100.00
2023-03-05T19:21:54.297Z,100.00
2023-03-05T19:25:56.214Z,100.00
2023-03-05T19:29:58.099Z,100.00
2023-03-05T19:33:59.728Z,100.00
2023-03-05T19:38:01.234Z,100.00
2023-03-05T19:42:03.539Z,100.00
2023-03-05T19:46:07.572Z,100.00
2023-03-05T19:50:09.920Z,100.00
2023-03-05T19:54:12.338Z,100.00
2023-03-05T19:58:13.822Z,100.00
2023-03-05T20:02:19.347Z,100.00
2023-03-05T20:06:22.400Z,100.00
2023-03-05T20:10:23.977Z,100.00
2023-03-05T20:14:25.485Z,100.00
2023-03-05T20:18:27.563Z,100.00
2023-03-05T20:22:29.034Z,100.00
2023-03-05T20:26:32.943Z,100.00
2023-03-05T20:30:34.432Z,100.00
2023-03-05T20:34:36.002Z,100.00
2023-03-05T20:38:37.713Z,100.00
2023-03-05T20:42:39.201Z,100.00
2023-03-05T20:46:49.579Z,100.00
2023-03-05T20:50:51.855Z,100.00
2023-03-05T20:54:53.410Z,100.00
2023-03-05T20:58:58.106Z,100.00
2023-03-05T21:02:59.750Z,100.00
2023-03-05T21:07:01.246Z,100.00
2023-03-05T21:11:08.078Z,100.00
2023-03-05T21:15:11.731Z,100.00
2023-03-05T21:19:13.386Z,100.00
2023-03-05T21:23:14.887Z,100.00
2023-03-05T21:27:16.424Z,100.00
2023-03-05T21:31:21.463Z,100.00
2023-03-05T21:35:23.077Z,100.00
2023-03-05T21:39:24.603Z,100.00
2023-03-05T21:43:26.906Z,100.00
2023-03-05T21:47:28.382Z,100.00
2023-03-05T21:51:38.451Z,100.00
2023-03-05T21:55:53.994Z,100.00
2023-03-05T21:59:56.060Z,100.00
2023-03-05T22:03:57.577Z,100.00
2023-03-05T22:07:59.139Z,100.00
2023-03-05T22:12:00.956Z,100.00
2023-03-05T22:16:02.420Z,100.00
2023-03-05T22:20:04.763Z,100.00
2023-03-05T22:24:06.427Z,100.00
2023-03-05T22:28:09.285Z,100.00
2023-03-05T22:32:10.826Z,100.00
2023-03-05T22:36:12.770Z,100.00
2023-03-05T22:40:18.112Z,100.00
2023-03-05T22:44:19.568Z,100.00
2023-03-05T22:48:21.258Z,100.00
2023-03-05T22:52:22.718Z,100.00
2023-03-05T22:56:24.255Z,100.00
2023-03-05T23:00:26.747Z,100.00
2023-03-05T23:04:47.522Z,100.00
2023-03-05T23:08:49.040Z,100.00
2023-03-05T23:12:52.796Z,100.00
2023-03-05T23:16:54.384Z,100.00
2023-03-05T23:20:56.162Z,100.00
2023-03-05T23:24:57.674Z,100.00
2023-03-05T23:28:59.165Z,100.00
2023-03-05T23:33:06.868Z,100.00
2023-03-05T23:37:08.392Z,100.00
2023-03-05T23:41:09.928Z,100.00
2023-03-05T23:45:14.034Z,100.00
2023-03-05T23:49:15.549Z,100.00
2023-03-05T23:53:23.520Z,100.00
2023-03-05T23:57:25.229Z,100.00
